Latest Coastal Weather Observations for Gabo Island

IDV60701

Issued at 8:31 pm EST Friday 29 May 2015 (issued every 10 minutes, with the page automatically refreshed every 10 minutes)

About coastal observations | Map of coastal stations | Coastal observations for VIC | Marine services | Other Formats
Station Details ID: 084016 Name: GABO ISLAND LIGHTHOUSE Lat: -37.57 Lon: 149.92 Height: 15.2 m
Data from the previous 72 hours. | See also: Recent months at Gabo Island
Date/Time
EST
Temp

°C
Wind Pressure Rain
since 9am
mm
Weather Cloud Vis
km
Sea
Height
m
Swell
Dir
 
Speed
knots
Gust
knots
hPa Trend Height
m
Period
s
Dir
29/08:30pm 12.4 W 10 12 1022.5 - 0.0 - - - - - - -
29/08:00pm 12.5 W 12 14 1022.3 - 0.0 - - - - - - -
29/07:30pm 12.4 W 11 13 1022.1 - 0.0 - - - - - - -
29/07:00pm 11.9 WNW 8 11 1022.1 - 0.0 - - - - - - -
29/06:30pm 12.3 WNW 8 11 1021.6 - 0.0 - - - - - - -
29/06:00pm 12.8 W 12 15 1021.1 - 0.0 - - - - - - -
29/05:30pm 13.4 WSW 15 18 1020.9 - 0.0 - - - - - - -
29/05:00pm 13.9 SW 18 22 1020.7 - 0.0 - - - - - - -
29/04:30pm 14.1 SW 19 22 1020.4 - 0.0 - - - - - - -
29/04:00pm 14.4 SW 19 23 1020.3 - 0.0 - - - - - - -
29/03:30pm 14.5 SW 20 23 1020.4 - 0.0 - - - - - - -
29/03:00pm 14.7 SW 18 22 1020.5 - 0.0 Fine Mostly clear 50 3 1.0 10 S
29/02:30pm 14.7 SW 21 25 1020.1 - 0.0 - - - - - - -
29/02:00pm 14.6 SW 21 25 1019.9 - 0.0 - - - - - - -
29/01:30pm 14.6 SW 20 23 1019.8 - 0.0 - - - - - - -
29/01:00pm 14.9 SW 18 24 1019.8 - 0.0 - - - - - - -
29/12:30pm 14.7 SW 19 23 1019.9 - 0.0 - - - - - - -
29/12:00pm 15.1 WSW 16 19 1020.2 - 0.0 - - - - - - -
29/11:30am 14.8 WSW 15 19 1020.4 - 0.0 - - - - - - -
29/11:00am 14.3 WSW 17 21 1020.2 - 0.0 - - - - - - -
29/10:30am 14.2 WSW 16 21 1020.3 - 0.0 - - - - - - -
29/10:00am 13.8 WSW 18 22 1020.0 - 0.0 - - - - - - -
29/09:30am 13.6 WSW 20 26 1019.8 - 0.0 - - - - - - -
29/09:00am 14.0 WSW 21 26 1019.6 - 0.0 Fine Partly cloudy 50 2 1.5 9 SE
29/08:30am 13.8 WSW 23 30 1019.5 - 0.0 - - - - - - -
29/08:00am 13.7 WSW 24 30 1019.1 - 0.0 - - - - - - -
29/07:30am 13.5 W 17 22 1019.0 - 0.0 - - - - - - -
29/07:00am 13.5 WSW 18 24 1018.6 - 0.0 - - - - - - -
29/06:30am 13.4 W 15 19 1018.3 - 0.0 - - - - - - -
29/06:00am 13.9 W 11 11 1017.7 - 0.0 - - - - - - -
29/05:30am 14.1 W 11 14 1017.2 - 0.0 - - - - - - -
29/05:00am 14.6 W 12 16 1017.0 - 0.0 - - - - - - -
29/04:30am 15.0 SW 18 22 1016.7 - 0.0 - - - - - - -
29/04:00am 15.3 SW 18 23 1016.2 - 0.0 - - - - - - -
29/03:30am 14.9 WSW 14 22 1015.6 - 0.0 - - - - - - -
29/03:00am 16.2 WNW 7 10 1014.9 - 0.0 - - - - - - -
29/02:30am 17.9 NNW 9 12 1014.9 - 0.0 - - - - - - -
29/02:00am 17.1 NNW 8 11 1014.8 - 0.0 - - - - - - -
29/01:30am 16.3 NNW 9 11 1014.7 - 0.0 - - - - - - -
29/01:00am 16.0 NW 5 6 1015.2 - 0.0 - - - - - - -
29/12:30am 16.1 NNW 7 11 1015.1 - 0.0 - - - - - - -
29/12:00am 16.0 WNW 7 10 1015.4 - 0.0 - - - - - - -
 
Date/Time
EST
Temp

°C
Wind Pressure Rain
since 9am
mm
Weather Cloud Vis
km
Sea
Height
m
Swell
Dir
 
Speed
knots
Gust
knots
hPa Trend Height
m
Period
s
Dir
28/11:30pm 15.3 WNW 5 7 1015.4 - 0.0 - - - - - - -
28/11:00pm 15.5 W 3 6 1015.7 - 0.0 - - - - - - -
28/10:30pm 16.3 NW 4 6 1015.7 - 0.0 - - - - - - -
28/10:00pm 15.2 NNW 6 7 1015.7 - 0.0 - - - - - - -
28/09:30pm 14.8 W 5 6 1015.9 - 0.0 - - - - - - -
28/09:00pm 14.7 NNW 3 5 1015.8 - 0.0 Fine Mostly cloudy 50 <0.5 1.5 9 SE
28/08:30pm 15.5 N 7 9 1016.1 - 0.0 - - - - - - -
28/08:00pm 15.4 N 8 11 1016.0 - 0.0 - - - - - - -
28/07:30pm 14.5 N 7 8 1016.4 - 0.0 - - - - - - -
28/07:00pm 14.4 NNE 5 6 1016.4 - 0.0 - - - - - - -
28/06:30pm 14.4 NNE 7 8 1016.4 - 0.0 - - - - - - -
28/06:00pm 14.7 N 7 10 1016.2 - 0.0 - - - - - - -
28/05:30pm 15.1 N 9 9 1016.3 - 0.0 - - - - - - -
28/05:00pm 15.9 N 8 11 1016.2 - 0.0 - - - - - - -
28/04:30pm 16.3 N 9 10 1016.2 - 0.0 - - - - - - -
28/04:00pm 16.8 NNE 8 9 1016.5 - 0.0 - - - - - - -
28/03:30pm 17.4 NNE 7 9 1016.6 - 0.0 - - - - - - -
28/03:00pm 18.2 NNE 7 9 1016.6 - 0.0 Fine Partly cloudy 50 <0.5 1.5 9 SE
28/02:30pm 19.1 NNE 7 9 1016.6 - 0.0 - - - - - - -
28/02:00pm 19.8 N 6 9 1017.1 - 0.0 - - - - - - -
28/01:30pm 19.4 NNW 5 7 1017.3 - 0.0 - - - - - - -
28/01:00pm 20.0 NW 6 8 1017.7 - 0.0 - - - - - - -
28/12:30pm 20.2 NNE 4 5 1018.0 - 0.0 - - - - - - -
28/12:00pm 18.8 NNE 5 9 1018.5 - 0.0 - - - - - - -
28/11:30am 19.6 NNE 7 9 1019.0 - 0.0 - - - - - - -
28/11:00am 17.5 W 4 7 1019.5 - 0.0 - - - - - - -
28/10:30am 17.2 N 6 7 1019.9 - 0.0 - - - - - - -
28/10:00am 17.1 W 7 8 1020.2 - 0.0 - - - - - - -
28/09:30am 18.7 N 6 8 1020.1 - 0.0 - - - - - - -
28/09:00am 16.5 NNE 5 7 1020.1 - 0.0 Fine Partly cloudy 50 <0.5 1.5 9 SE
28/08:30am 15.7 NNE 4 5 1020.1 - 0.0 - - - - - - -
28/08:00am 13.6 NNE 4 6 1020.2 - 0.0 - - - - - - -
28/07:30am 14.0 NNW 6 7 1020.1 - 0.0 - - - - - - -
28/07:00am 14.7 NW 9 11 1019.8 - 0.0 - - - - - - -
28/06:30am 14.2 NW 6 8 1019.7 - 0.0 - - - - - - -
28/06:00am 13.0 NNE 3 3 1019.4 - 0.0 - - - - - - -
28/05:30am 14.0 NW 4 6 1019.3 - 0.0 - - - - - - -
28/05:00am 12.8 NE 4 6 1019.3 - 0.0 - - - - - - -
28/04:30am 13.6 NW 6 8 1019.4 - 0.0 - - - - - - -
28/04:00am 13.9 NW 10 11 1019.3 - 0.0 - - - - - - -
28/03:30am 12.6 W 7 8 1019.3 - 0.0 - - - - - - -
28/03:00am 14.6 NW 8 9 1019.5 - 0.0 Fine Clear 50 <0.5 1.5 9 SE
28/02:30am 13.6 NW 7 9 1019.7 - 0.0 - - - - - - -
28/02:00am 14.6 NW 8 9 1019.8 - 0.0 - - - - - - -
28/01:30am 14.6 NW 6 8 1019.9 - 0.0 - - - - - - -
28/01:00am 14.7 NW 8 10 1019.9 - 0.0 - - - - - - -
28/12:30am 14.7 NW 7 9 1020.0 - 0.0 - - - - - - -
28/12:00am 14.1 NNW 7 8 1020.2 - 0.0 - - - - - - -
 
Date/Time
EST
Temp

°C
Wind Pressure Rain
since 9am
mm
Weather Cloud Vis
km
Sea
Height
m
Swell
Dir
 
Speed
knots
Gust
knots
hPa Trend Height
m
Period
s
Dir
27/11:30pm 14.3 NW 6 8 1020.3 - 0.0 - - - - - - -
27/11:00pm 13.1 WNW 5 8 1020.2 - 0.0 - - - - - - -
27/10:30pm 12.0 W 5 6 1020.2 - 0.0 - - - - - - -
27/10:00pm 13.0 NW 5 7 1020.3 - 0.0 - - - - - - -
27/09:30pm 13.1 N 7 9 1020.4 - 0.0 - - - - - - -
27/09:00pm 12.7 N 3 7 1020.3 - 0.0 Fine Mostly clear 50 <0.5 1.5 9 SE
27/08:30pm 12.3 N 5 7 1020.4 - 0.0 - - - - - - -
27/08:00pm 11.9 N 8 8 1020.3 - 0.0 - - - - - - -
27/07:30pm 12.8 N 9 11 1020.2 - 0.0 - - - - - - -
27/07:00pm 13.2 N 8 9 1020.1 - 0.0 - - - - - - -
27/06:30pm 13.6 N 8 10 1020.0 - 0.0 - - - - - - -
27/06:00pm 14.0 NNE 8 9 1020.0 - 0.0 - - - - - - -
27/05:30pm 14.7 NNE 8 9 1019.9 - 0.0 - - - - - - -
27/05:00pm 14.9 NNE 8 10 1019.8 - 0.0 - - - - - - -
27/04:30pm 15.6 NE 8 10 1019.7 - 0.0 - - - - - - -
27/04:00pm 15.4 NE 9 10 1019.7 - 0.0 - - - - - - -
27/03:30pm 16.3 ENE 7 7 1019.8 - 0.0 - - - - - - -
27/03:00pm 16.7 ENE 6 7 1019.7 - 0.0 Fine Mostly clear 50 <0.5 1.5 9 SE
27/02:30pm 16.9 ENE 5 6 1019.7 - 0.0 - - - - - - -
27/02:00pm 17.3 ESE 3 4 1020.0 - 0.0 - - - - - - -
27/01:30pm 16.7 SE 4 5 1020.1 - 0.0 - - - - - - -
27/01:00pm 16.5 S 4 5 1020.3 - 0.0 - - - - - - -
27/12:30pm 17.1 WSW 4 6 1020.9 - 0.0 - - - - - - -
27/12:00pm 15.9 W 5 6 1021.3 - 0.0 - - - - - - -
27/11:30am 15.8 W 8 10 1021.8 - 0.0 - - - - - - -
27/11:00am 15.2 SW 5 7 1022.1 - 0.0 - - - - - - -
27/10:30am 14.6 WSW 5 7 1022.1 - 0.0 - - - - - - -
27/10:00am 15.2 SW 3 5 1022.3 - 0.0 - - - - - - -
27/09:30am 14.9 N 3 4 1022.6 - 0.0 - - - - - - -
27/09:00am 12.5 WNW 6 7 1022.8 - 0.0 Fine Mostly cloudy 50 <0.5 1.5 9 SE
27/08:30am 12.6 NW 5 9 1022.9 - 0.0 - - - - - - -
27/08:00am 12.5 NNW 4 5 1022.9 - 0.0 - - - - - - -
27/07:30am 12.2 N 6 6 1022.8 - 0.0 - - - - - - -
27/07:00am 11.7 N 6 7 1022.7 - 0.0 - - - - - - -
27/06:30am 12.1 N 6 8 1022.4 - 0.0 - - - - - - -
27/06:00am 11.9 N 7 7 1022.2 - 0.0 - - - - - - -
27/05:30am 12.7 N 8 10 1022.3 - 0.0 - - - - - - -
27/05:00am 12.0 N 6 7 1022.4 - 0.0 - - - - - - -
27/04:30am 11.9 N 5 6 1022.7 - 0.0 - - - - - - -
27/04:00am 13.2 ENE 6 8 1022.7 - 0.0 - - - - - - -
27/03:30am 12.9 ENE 7 8 1022.8 - 0.0 - - - - - - -
27/03:00am 11.9 WNW 4 5 1023.9 - 0.0 Fine Cloudy 50 <0.5 1.0 10 SE
27/02:30am 12.1 WNW 5 6 1024.1 - 0.0 - - - - - - -
27/02:00am 11.7 NW 3 4 1024.3 - 0.0 - - - - - - -
27/01:30am 11.8 NNE 2 4 1024.3 - 0.0 - - - - - - -
27/01:00am 12.0 CALM 0 0 1024.4 - 0.0 - - - - - - -
27/12:30am 11.6 CALM 0 0 1024.7 - 0.0 - - - - - - -
27/12:00am 11.5 W 4 5 1025.0 - 0.0 - - - - - - -
 
Date/Time
EST
Temp

°C
Wind Pressure Rain
since 9am
mm
Weather Cloud Vis
km
Sea
Height
m
Swell
Dir
 
Speed
knots
Gust
knots
hPa Trend Height
m
Period
s
Dir
26/11:30pm 11.0 N 4 4 1025.2 - 0.0 - - - - - - -
26/11:00pm 10.7 N 6 6 1025.5 - 0.0 - - - - - - -
26/10:30pm 11.2 NNW 5 5 1025.6 - 0.0 - - - - - - -
26/10:00pm 11.6 CALM 0 0 1025.9 - 0.0 - - - - - - -
26/09:30pm 11.7 NW 3 4 1026.3 - 0.0 - - - - - - -
26/09:00pm 12.0 WNW 4 5 1026.4 - 0.0 Fine Mostly cloudy 50 <0.5 1.0 10 SE

Other Formats:

Comma delimited format used in spreadsheet applications
http://www.bom.gov.au/fwo/IDV60701/IDV60701.94933.axf

JavaScript Object Notation format (JSON) in row-major order
http://www.bom.gov.au/fwo/IDV60701/IDV60701.94933.json